Time,TemperatureF,DewpointF,PressureIn,WindDirection,WindDirectionDegrees,WindSpeedMPH,WindSpeedGustMPH,Humidity,HourlyPrecipIn,Conditions,Clouds,dailyrainin,SoftwareType,DateUTC
2013-02-20 00:00:00,59.7,38.9,30.03,West,265,0.0,0.0,46,0.00,CLR,,0.00,WeatherDisplay:10.37,2013-02-20 05:00:00,
2013-02-20 00:05:00,59.0,38.2,30.03,West,265,0.0,0.0,46,0.00,CLR,,0.00,WeatherDisplay:10.37,2013-02-20 05:05:00,
2013-02-20 00:20:00,58.6,40.0,30.03,West,265,0.0,0.0,50,0.00,CLR,,0.00,WeatherDisplay:10.37,2013-02-20 05:20:00,
2013-02-20 00:25:00,58.6,40.0,30.03,West,265,0.0,0.0,50,0.00,CLR,,0.00,WeatherDisplay:10.37,2013-02-20 05:25:00,
2013-02-20 00:30:00,58.6,40.0,30.03,West,265,0.0,0.0,50,0.00,CLR,,0.00,WeatherDisplay:10.37,2013-02-20 05:30:00,
2013-02-20 00:35:00,58.3,39.7,30.03,West,265,0.0,0.0,50,0.00,CLR,,0.00,WeatherDisplay:10.37,2013-02-20 05:35:00,
2013-02-20 00:40:00,57.6,39.0,30.03,West,265,0.0,0.0,50,0.00,CLR,,0.00,WeatherDisplay:10.37,2013-02-20 05:40:00,
2013-02-20 00:50:00,57.4,39.4,30.03,West,265,0.0,0.0,51,0.00,CLR,,0.00,WeatherDisplay:10.37,2013-02-20 05:50:00,
2013-02-20 01:00:00,56.7,39.2,30.03,West,265,0.0,0.0,52,0.00,CLR,,0.00,WeatherDisplay:10.37,2013-02-20 06:00:00,
2013-02-20 01:05:00,56.7,39.2,30.03,West,265,0.0,0.0,52,0.00,CLR,,0.00,WeatherDisplay:10.37,2013-02-20 06:05:00,
2013-02-20 01:10:00,56.3,38.9,30.03,West,265,0.0,0.0,52,0.00,CLR,,0.00,WeatherDisplay:10.37,2013-02-20 06:10:00,
2013-02-20 01:20:00,56.1,39.2,30.03,West,265,0.0,0.0,53,0.00,CLR,,0.00,WeatherDisplay:10.37,2013-02-20 06:20:00,
2013-02-20 01:30:00,55.9,39.0,30.03,West,265,0.0,0.0,53,0.00,CLR,,0.00,WeatherDisplay:10.37,2013-02-20 06:30:00,
2013-02-20 01:40:00,56.1,39.7,30.03,West,265,0.0,0.0,54,0.00,CLR,,0.00,WeatherDisplay:10.37,2013-02-20 06:40:00,
2013-02-20 01:50:00,56.7,40.7,30.03,West,265,0.0,0.0,55,0.00,CLR,,0.00,WeatherDisplay:10.37,2013-02-20 06:50:00,
2013-02-20 02:00:00,56.1,40.6,30.03,West,265,0.0,0.0,56,0.00,CLR,,0.00,WeatherDisplay:10.37,2013-02-20 07:00:00,
2013-02-20 02:05:00,55.9,40.9,30.03,West,265,0.0,0.0,57,0.00,CLR,,0.00,WeatherDisplay:10.37,2013-02-20 07:05:00,
2013-02-20 02:10:00,55.8,40.7,30.03,West,265,0.0,0.0,57,0.00,CLR,,0.00,WeatherDisplay:10.37,2013-02-20 07:10:00,
2013-02-20 02:20:00,55.9,41.8,30.03,West,265,0.0,0.0,59,0.00,CLR,,0.00,WeatherDisplay:10.37,2013-02-20 07:20:00,
2013-02-20 02:25:00,55.8,42.1,30.03,West,265,0.0,0.0,60,0.00,CLR,,0.00,WeatherDisplay:10.37,2013-02-20 07:25:00,
2013-02-20 02:30:00,55.6,41.9,30.03,West,265,0.0,0.0,60,0.00,CLR,,0.00,WeatherDisplay:10.37,2013-02-20 07:30:00,
2013-02-20 02:40:00,55.4,43.0,30.03,West,265,0.0,0.0,63,0.00,CLR,,0.00,WeatherDisplay:10.37,2013-02-20 07:40:00,
2013-02-20 02:50:00,55.4,43.8,30.03,West,265,0.0,0.0,65,0.00,CLR,,0.00,WeatherDisplay:10.37,2013-02-20 07:50:00,
2013-02-20 03:00:00,55.6,45.2,30.03,West,265,0.0,0.0,68,0.00,CLR,,0.00,WeatherDisplay:10.37,2013-02-20 08:00:00,
2013-02-20 03:05:00,55.0,44.3,30.03,West,279,0.0,0.0,67,0.00,CLR,,0.00,WeatherDisplay:10.37,2013-02-20 08:05:00,
2013-02-20 03:10:00,55.0,44.3,30.03,WNW,290,0.0,0.0,67,0.00,CLR,,0.00,WeatherDisplay:10.37,2013-02-20 08:10:00,
2013-02-20 03:20:00,53.6,34.4,30.03,NW,311,0.0,0.0,48,0.00,CLR,,0.00,WeatherDisplay:10.37,2013-02-20 08:20:00,
2013-02-20 03:25:00,53.4,34.2,30.03,NW,315,0.0,0.0,48,0.00,CLR,,0.00,WeatherDisplay:10.37,2013-02-20 08:25:00,
2013-02-20 03:30:00,53.4,33.7,30.03,NW,313,0.0,0.0,47,0.00,CLR,,0.00,WeatherDisplay:10.37,2013-02-20 08:30:00,
2013-02-20 03:40:00,52.7,29.6,30.03,NNE,25,0.0,0.0,41,0.00,CLR,,0.00,WeatherDisplay:10.37,2013-02-20 08:40:00,
2013-02-20 03:45:00,52.7,29.6,30.03,NNW,331,0.0,0.0,41,0.00,CLR,,0.00,WeatherDisplay:10.37,2013-02-20 08:45:00,
2013-02-20 03:50:00,52.5,27.6,30.03,NW,320,0.0,1.0,38,0.00,CLR,,0.00,WeatherDisplay:10.37,2013-02-20 08:50:00,
2013-02-20 03:55:00,52.2,26.0,30.03,North,3,0.0,1.0,36,0.00,CLR,,0.00,WeatherDisplay:10.37,2013-02-20 08:55:00,
2013-02-20 04:00:00,52.2,26.0,30.03,NE,50,0.0,0.0,36,0.00,CLR,,0.00,WeatherDisplay:10.37,2013-02-20 09:00:00,
2013-02-20 04:10:00,52.0,25.8,30.03,ENE,62,0.0,0.0,36,0.00,CLR,,0.00,WeatherDisplay:10.37,2013-02-20 09:10:00,
2013-02-20 04:15:00,51.6,26.8,30.03,East,80,0.0,0.0,38,0.00,CLR,,0.00,WeatherDisplay:10.37,2013-02-20 09:15:00,
2013-02-20 04:20:00,51.8,27.0,30.03,East,80,0.0,0.0,38,0.00,CLR,,0.00,WeatherDisplay:10.37,2013-02-20 09:20:00,
2013-02-20 04:25:00,51.8,27.0,30.03,East,80,0.0,1.0,38,0.00,CLR,,0.00,WeatherDisplay:10.37,2013-02-20 09:25:00,
2013-02-20 04:30:00,51.8,27.0,30.03,ENE,78,0.0,1.0,38,0.00,CLR,,0.00,WeatherDisplay:10.37,2013-02-20 09:30:00,
2013-02-20 04:40:00,51.3,27.1,30.03,East,80,0.0,0.0,39,0.00,CLR,,0.00,WeatherDisplay:10.37,2013-02-20 09:40:00,
2013-02-20 04:50:00,51.3,28.9,30.03,ENE,78,0.0,0.0,42,0.00,CLR,,0.00,WeatherDisplay:10.37,2013-02-20 09:50:00,
2013-02-20 05:00:00,50.7,25.4,30.03,North,6,0.0,1.0,37,0.00,CLR,,0.00,WeatherDisplay:10.37,2013-02-20 10:00:00,
2013-02-20 05:05:00,50.5,21.7,30.03,NE,45,0.0,2.0,32,0.00,CLR,,0.00,WeatherDisplay:10.37,2013-02-20 10:05:00,
2013-02-20 05:10:00,50.2,17.4,30.03,ENE,70,1.0,1.0,27,0.00,CLR,,0.00,WeatherDisplay:10.37,2013-02-20 10:10:00,
2013-02-20 05:20:00,50.0,10.4,30.03,NE,55,2.0,5.0,20,0.00,CLR,,0.00,WeatherDisplay:10.37,2013-02-20 10:20:00,
2013-02-20 05:30:00,50.2,10.6,30.03,ENE,63,3.0,7.0,20,0.00,CLR,,0.00,WeatherDisplay:10.37,2013-02-20 10:30:00,
2013-02-20 05:40:00,49.3,9.8,30.06,ENE,70,3.0,0.0,20,0.00,CLR,,0.00,WeatherDisplay:10.37,2013-02-20 10:40:00,
2013-02-20 05:50:00,49.1,9.7,30.06,ENE,57,1.0,1.0,20,0.00,CLR,,0.00,WeatherDisplay:10.37,2013-02-20 10:50:00,
2013-02-20 05:55:00,48.2,8.9,30.06,ENE,60,0.0,0.0,20,0.00,CLR,,0.00,WeatherDisplay:10.37,2013-02-20 10:55:00,
2013-02-20 06:00:00,47.8,9.7,30.06,ENE,65,0.0,0.0,21,0.00,CLR,,0.00,WeatherDisplay:10.37,2013-02-20 11:00:00,
2013-02-20 06:05:00,47.8,13.7,30.06,ENE,65,0.0,0.0,25,0.00,CLR,,0.00,WeatherDisplay:10.37,2013-02-20 11:05:00,
2013-02-20 06:10:00,47.8,13.7,30.06,ENE,65,0.0,0.0,25,0.00,CLR,,0.00,WeatherDisplay:10.37,2013-02-20 11:10:00,
2013-02-20 06:20:00,48.0,9.9,30.06,SSE,168,0.0,1.0,21,0.00,CLR,,0.00,WeatherDisplay:10.37,2013-02-20 11:20:00,
2013-02-20 06:30:00,47.8,8.6,30.06,ENE,68,0.0,0.0,20,0.00,CLR,,0.00,WeatherDisplay:10.37,2013-02-20 11:30:00,
2013-02-20 06:40:00,47.7,8.5,30.06,East,86,1.0,4.0,20,0.00,CLR,,0.00,WeatherDisplay:10.37,2013-02-20 11:40:00,
2013-02-20 06:50:00,47.1,8.0,30.09,ENE,70,1.0,0.0,20,0.00,CLR,,0.00,WeatherDisplay:10.37,2013-02-20 11:50:00,
2013-02-20 07:00:00,46.8,7.7,30.09,ENE,70,0.0,0.0,20,0.00,CLR,,0.00,WeatherDisplay:10.37,2013-02-20 12:00:00,
2013-02-20 07:05:00,46.8,10.9,30.09,ENE,70,0.0,0.0,23,0.00,CLR,,0.00,WeatherDisplay:10.37,2013-02-20 12:05:00,
2013-02-20 07:10:00,46.8,12.7,30.09,ENE,70,0.0,0.0,25,0.00,CLR,,0.00,WeatherDisplay:10.37,2013-02-20 12:10:00,
2013-02-20 07:20:00,46.6,13.5,30.09,ENE,72,0.0,0.0,26,0.00,CLR,,0.00,WeatherDisplay:10.37,2013-02-20 12:20:00,
2013-02-20 07:30:00,46.9,11.0,30.09,ENE,58,0.0,1.0,23,0.00,CLR,,0.00,WeatherDisplay:10.37,2013-02-20 12:30:00,
2013-02-20 07:40:00,47.3,13.2,30.09,NE,40,0.0,3.0,25,0.00,CLR,,0.00,WeatherDisplay:10.37,2013-02-20 12:40:00,
2013-02-20 07:45:00,47.3,14.1,30.09,ENE,75,1.0,3.0,26,0.00,CLR,,0.00,WeatherDisplay:10.37,2013-02-20 12:45:00,
2013-02-20 07:55:00,48.0,14.7,30.09,ENE,75,0.0,0.0,26,0.00,CLR,,0.00,WeatherDisplay:10.37,2013-02-20 12:55:00,
2013-02-20 08:00:00,47.7,13.5,30.09,NE,53,0.0,0.0,25,0.00,CLR,,0.00,WeatherDisplay:10.37,2013-02-20 13:00:00,
2013-02-20 08:05:00,48.0,9.9,30.09,North,1,0.0,1.0,21,0.00,CLR,,0.00,WeatherDisplay:10.37,2013-02-20 13:05:00,
2013-02-20 08:11:00,48.0,9.9,30.09,NNW,339,0.0,1.0,21,0.00,CLR,,0.00,WeatherDisplay:10.37,2013-02-20 13:11:00,
2013-02-20 08:20:00,48.0,9.9,30.09,NW,325,0.0,1.0,21,0.00,CLR,,0.00,WeatherDisplay:10.37,2013-02-20 13:20:00,
2013-02-20 08:30:00,54.0,13.7,30.09,ENE,73,1.0,5.0,20,0.00,CLR,,0.00,WeatherDisplay:10.37,2013-02-20 13:30:00,
2013-02-20 08:40:00,53.1,13.0,30.09,NE,56,1.0,1.0,20,0.00,CLR,,0.00,WeatherDisplay:10.37,2013-02-20 13:40:00,
2013-02-20 08:45:00,56.7,16.0,30.09,ENE,68,2.0,2.0,20,0.00,CLR,,0.00,WeatherDisplay:10.37,2013-02-20 13:45:00,
2013-02-20 08:50:00,56.1,15.5,30.09,East,81,2.0,5.0,20,0.00,CLR,,0.00,WeatherDisplay:10.37,2013-02-20 13:50:00,
2013-02-20 09:00:00,57.6,16.7,30.09,East,80,1.0,0.0,20,0.00,CLR,,0.00,WeatherDisplay:10.37,2013-02-20 14:00:00,
2013-02-20 09:05:00,57.9,17.0,30.09,ENE,60,1.0,1.0,20,0.00,CLR,,0.00,WeatherDisplay:10.37,2013-02-20 14:05:00,
2013-02-20 09:10:00,59.0,17.9,30.09,NE,56,0.0,3.0,20,0.00,CLR,,0.00,WeatherDisplay:10.37,2013-02-20 14:10:00,
2013-02-20 09:20:00,59.4,18.2,30.09,NNE,32,1.0,0.0,20,0.00,CLR,,0.00,WeatherDisplay:10.37,2013-02-20 14:20:00,
2013-02-20 09:25:00,61.2,19.7,30.12,North,9,1.0,5.0,20,0.00,CLR,,0.00,WeatherDisplay:10.37,2013-02-20 14:25:00,
2013-02-20 09:35:00,63.3,21.5,30.12,NE,50,1.0,5.0,20,0.00,CLR,,0.00,WeatherDisplay:10.37,2013-02-20 14:35:00,
2013-02-20 09:40:00,65.1,23.0,30.12,NE,48,1.0,1.0,20,0.00,CLR,,0.00,WeatherDisplay:10.37,2013-02-20 14:40:00,
2013-02-20 09:50:00,64.9,22.9,30.09,NE,45,1.0,1.0,20,0.00,CLR,,0.00,WeatherDisplay:10.37,2013-02-20 14:50:00,
2013-02-20 09:55:00,66.0,23.8,30.09,ENE,59,1.0,0.0,20,0.00,CLR,,0.00,WeatherDisplay:10.37,2013-02-20 14:55:00,
2013-02-20 10:05:00,66.4,24.1,30.09,NE,48,0.0,1.0,20,0.00,CLR,,0.00,WeatherDisplay:10.37,2013-02-20 15:05:00,
2013-02-20 10:10:00,66.9,24.5,30.09,NE,47,0.0,0.0,20,0.00,CLR,,0.00,WeatherDisplay:10.37,2013-02-20 15:10:00,
2013-02-20 10:20:00,65.1,23.0,30.09,ENE,71,1.0,4.0,20,0.00,CLR,,0.00,WeatherDisplay:10.37,2013-02-20 15:20:00,
2013-02-20 10:25:00,64.9,22.9,30.09,ENE,62,2.0,5.0,20,0.00,CLR,,0.00,WeatherDisplay:10.37,2013-02-20 15:25:00,
2013-02-20 10:35:00,63.1,21.4,30.09,WNW,295,3.0,5.0,20,0.00,CLR,,0.00,WeatherDisplay:10.37,2013-02-20 15:35:00,
2013-02-20 10:45:00,63.1,21.4,30.09,WNW,302,3.0,6.0,20,0.00,CLR,,0.00,WeatherDisplay:10.37,2013-02-20 15:45:00,
2013-02-20 10:50:00,65.5,23.3,30.09,ENE,57,2.0,2.0,20,0.00,CLR,,0.00,WeatherDisplay:10.37,2013-02-20 15:50:00,
2013-02-20 10:55:00,64.2,22.3,30.09,NE,55,2.0,6.0,20,0.00,CLR,,0.00,WeatherDisplay:10.37,2013-02-20 15:55:00,
2013-02-20 11:05:00,63.5,21.7,30.09,NE,44,2.0,3.0,20,0.00,CLR,,0.00,WeatherDisplay:10.37,2013-02-20 16:05:00,
2013-02-20 11:10:00,64.4,22.4,30.09,ENE,67,2.0,3.0,20,0.00,CLR,,0.00,WeatherDisplay:10.37,2013-02-20 16:10:00,
2013-02-20 11:20:00,65.7,23.5,30.09,ENE,68,2.0,5.0,20,0.00,CLR,,0.00,WeatherDisplay:10.37,2013-02-20 16:20:00,
2013-02-20 11:25:00,65.3,23.2,30.09,ENE,64,2.0,5.0,20,0.00,CLR,,0.00,WeatherDisplay:10.37,2013-02-20 16:25:00,
2013-02-20 11:35:00,65.3,23.2,30.09,East,85,3.0,6.0,20,0.00,CLR,,0.00,WeatherDisplay:10.37,2013-02-20 16:35:00,
2013-02-20 11:40:00,61.3,19.9,30.09,East,80,3.0,5.0,20,0.00,CLR,,0.00,WeatherDisplay:10.37,2013-02-20 16:40:00,
2013-02-20 11:50:00,63.0,21.2,30.09,NNE,16,3.0,5.0,20,0.00,CLR,,0.00,WeatherDisplay:10.37,2013-02-20 16:50:00,
2013-02-20 11:55:00,61.0,19.6,30.09,NE,40,3.0,6.0,20,0.00,CLR,,0.00,WeatherDisplay:10.37,2013-02-20 16:55:00,
2013-02-20 12:00:00,62.8,21.1,30.09,ENE,78,5.0,6.0,20,0.00,CLR,,0.00,WeatherDisplay:10.37,2013-02-20 17:00:00,
2013-02-20 12:05:00,47.1,29.9,30.03,SSE,155,0.0,0.0,51,0.00,,,0.00,WeatherDisplay:10.37,2013-02-20 17:05:00,
2013-02-20 12:10:00,64.2,22.3,30.06,ENE,75,5.0,5.0,20,0.00,CLR,,0.00,WeatherDisplay:10.37,2013-02-20 17:10:00,
2013-02-20 12:20:00,65.3,23.2,30.06,North,11,3.0,5.0,20,0.00,CLR,,0.00,WeatherDisplay:10.37,2013-02-20 17:20:00,
2013-02-20 12:25:00,64.6,22.6,30.06,NNE,22,2.0,3.0,20,0.00,CLR,,0.00,WeatherDisplay:10.37,2013-02-20 17:25:00,
2013-02-20 12:35:00,63.7,21.8,30.06,East,86,2.0,4.0,20,0.00,CLR,,0.00,WeatherDisplay:10.37,2013-02-20 17:35:00,
2013-02-20 12:40:00,64.2,22.3,30.06,East,85,2.0,3.0,20,0.00,CLR,,0.00,WeatherDisplay:10.37,2013-02-20 17:40:00,
2013-02-20 12:50:00,66.2,23.9,30.06,East,80,2.0,3.0,20,0.00,CLR,,0.00,WeatherDisplay:10.37,2013-02-20 17:50:00,
2013-02-20 12:55:00,66.2,23.9,30.06,East,80,2.0,3.0,20,0.00,CLR,,0.00,WeatherDisplay:10.37,2013-02-20 17:55:00,
2013-02-20 13:05:00,68.4,25.7,30.03,NNE,13,2.0,0.0,20,0.00,CLR,,0.00,WeatherDisplay:10.37,2013-02-20 18:05:00,
2013-02-20 13:10:00,68.7,26.0,30.03,North,359,1.0,1.0,20,0.00,CLR,,0.00,WeatherDisplay:10.37,2013-02-20 18:10:00,
2013-02-20 13:20:00,67.8,25.2,30.03,East,90,0.0,3.0,20,0.00,CLR,,0.00,WeatherDisplay:10.37,2013-02-20 18:20:00,
2013-02-20 13:25:00,72.5,29.1,30.03,South,169,1.0,3.0,20,0.00,CLR,,0.00,WeatherDisplay:10.37,2013-02-20 18:25:00,
2013-02-20 13:30:00,72.5,29.1,30.03,SW,230,1.0,4.0,20,0.00,CLR,,0.00,WeatherDisplay:10.37,2013-02-20 18:30:00,
2013-02-20 13:40:00,74.7,30.9,30.00,SW,232,1.0,5.0,20,0.00,CLR,,0.00,WeatherDisplay:10.37,2013-02-20 18:40:00,
2013-02-20 13:50:00,73.9,30.3,30.00,SW,230,2.0,6.0,20,0.00,CLR,,0.00,WeatherDisplay:10.37,2013-02-20 18:50:00,
2013-02-20 13:55:00,77.2,33.0,30.00,South,177,2.0,0.0,20,0.00,CLR,,0.00,WeatherDisplay:10.37,2013-02-20 18:55:00,
2013-02-20 14:05:00,76.3,32.2,30.00,West,280,1.0,4.0,20,0.00,CLR,,0.00,WeatherDisplay:10.37,2013-02-20 19:05:00,
2013-02-20 14:10:00,75.4,31.5,30.00,WNW,303,1.0,4.0,20,0.00,CLR,,0.00,WeatherDisplay:10.37,2013-02-20 19:10:00,
2013-02-20 14:20:00,72.5,29.1,30.00,ENE,67,2.0,4.0,20,0.00,CLR,,0.00,WeatherDisplay:10.37,2013-02-20 19:20:00,
2013-02-20 14:25:00,73.0,29.6,30.00,ENE,75,2.0,4.0,20,0.00,CLR,,0.00,WeatherDisplay:10.37,2013-02-20 19:25:00,
2013-02-20 14:30:00,73.0,29.6,30.00,East,85,2.0,0.0,20,0.00,CLR,,0.00,WeatherDisplay:10.37,2013-02-20 19:30:00,
2013-02-20 14:40:00,76.6,32.5,30.00,East,84,1.0,2.0,20,0.00,CLR,,0.00,WeatherDisplay:10.37,2013-02-20 19:40:00,
2013-02-20 14:50:00,76.6,32.5,30.00,WNW,284,1.0,3.0,20,0.00,CLR,,0.00,WeatherDisplay:10.37,2013-02-20 19:50:00,
2013-02-20 14:55:00,74.1,30.5,30.00,NW,311,1.0,1.0,20,0.00,CLR,,0.00,WeatherDisplay:10.37,2013-02-20 19:55:00,
2013-02-20 15:05:00,73.9,30.3,30.00,ENE,60,0.0,0.0,20,0.00,CLR,,0.00,WeatherDisplay:10.37,2013-02-20 20:05:00,
2013-02-20 15:10:00,74.7,30.9,30.00,ENE,58,0.0,0.0,20,0.00,CLR,,0.00,WeatherDisplay:10.37,2013-02-20 20:10:00,
2013-02-20 15:20:00,75.0,31.2,30.00,ENE,59,0.0,2.0,20,0.00,CLR,,0.00,WeatherDisplay:10.37,2013-02-20 20:20:00,
2013-02-20 15:25:00,76.1,32.1,30.00,ENE,60,0.0,2.0,20,0.00,CLR,,0.00,WeatherDisplay:10.37,2013-02-20 20:25:00,
2013-02-20 15:30:00,76.1,32.1,30.00,ENE,60,0.0,0.0,20,0.00,CLR,,0.00,WeatherDisplay:10.37,2013-02-20 20:30:00,
2013-02-20 15:40:00,73.9,30.3,30.00,NNE,25,0.0,4.0,20,0.00,CLR,,0.00,WeatherDisplay:10.37,2013-02-20 20:40:00,
2013-02-20 15:50:00,78.3,33.9,30.00,WNW,282,1.0,0.0,20,0.00,CLR,,0.00,WeatherDisplay:10.37,2013-02-20 20:50:00,
2013-02-20 15:55:00,79.0,34.5,29.97,West,274,2.0,4.0,20,0.00,CLR,,0.00,WeatherDisplay:10.37,2013-02-20 20:55:00,
2013-02-20 16:05:00,81.0,36.1,30.00,WSW,250,1.0,1.0,20,0.00,CLR,,0.00,WeatherDisplay:10.37,2013-02-20 21:05:00,
2013-02-20 16:10:00,79.0,34.5,30.00,WSW,245,1.0,1.0,20,0.00,CLR,,0.00,WeatherDisplay:10.37,2013-02-20 21:10:00,
2013-02-20 16:20:00,77.0,32.8,29.97,SW,223,1.0,4.0,20,0.00,CLR,,0.00,WeatherDisplay:10.37,2013-02-20 21:20:00,
2013-02-20 16:25:00,75.0,31.2,29.97,SW,223,1.0,3.0,20,0.00,CLR,,0.00,WeatherDisplay:10.37,2013-02-20 21:25:00,
2013-02-20 16:35:00,73.0,29.6,29.97,SE,141,2.0,4.0,20,0.00,CLR,,0.00,WeatherDisplay:10.37,2013-02-20 21:35:00,
2013-02-20 16:40:00,72.7,29.3,29.97,South,179,2.0,4.0,20,0.00,CLR,,0.00,WeatherDisplay:10.37,2013-02-20 21:40:00,
2013-02-20 16:50:00,73.8,30.2,29.97,SSW,195,2.0,0.0,20,0.00,CLR,,0.00,WeatherDisplay:10.37,2013-02-20 21:50:00,
2013-02-20 16:55:00,73.9,30.3,29.97,SSW,195,1.0,0.0,20,0.00,CLR,,0.00,WeatherDisplay:10.37,2013-02-20 21:55:00,
2013-02-20 17:05:00,69.6,26.7,30.00,SSW,195,0.0,0.0,20,0.00,CLR,,0.00,WeatherDisplay:10.37,2013-02-20 22:05:00,
2013-02-20 17:10:00,70.0,27.0,30.00,SSW,195,0.0,0.0,20,0.00,CLR,,0.00,WeatherDisplay:10.37,2013-02-20 22:10:00,
2013-02-20 17:20:00,68.7,26.0,30.00,SSW,195,0.0,0.0,20,0.00,CLR,,0.00,WeatherDisplay:10.37,2013-02-20 22:20:00,
2013-02-20 17:25:00,68.7,26.0,30.00,SSW,195,0.0,0.0,20,0.00,CLR,,0.00,WeatherDisplay:10.37,2013-02-20 22:25:00,
2013-02-20 17:35:00,66.4,24.1,30.00,SSW,195,0.0,0.0,20,0.00,CLR,,0.00,WeatherDisplay:10.37,2013-02-20 22:35:00,
2013-02-20 17:40:00,65.3,23.2,30.00,SSW,195,0.0,0.0,20,0.00,CLR,,0.00,WeatherDisplay:10.37,2013-02-20 22:40:00,
2013-02-20 17:50:00,64.0,22.1,30.00,SSW,195,0.0,0.0,20,0.00,CLR,,0.00,WeatherDisplay:10.37,2013-02-20 22:50:00,
2013-02-20 17:55:00,62.6,20.9,30.00,SSW,195,0.0,0.0,20,0.00,CLR,,0.00,WeatherDisplay:10.37,2013-02-20 22:55:00,
2013-02-20 18:05:00,61.3,19.9,30.00,SSW,195,0.0,0.0,20,0.00,CLR,,0.00,WeatherDisplay:10.37,2013-02-20 23:05:00,
2013-02-20 18:10:00,61.0,19.6,30.00,SSW,195,0.0,0.0,20,0.00,CLR,,0.00,WeatherDisplay:10.37,2013-02-20 23:10:00,
2013-02-20 18:15:00,60.8,19.4,30.00,SSW,195,0.0,0.0,20,0.00,CLR,,0.00,WeatherDisplay:10.37,2013-02-20 23:15:00,
2013-02-20 18:20:00,59.9,18.7,30.00,SSW,195,0.0,0.0,20,0.00,CLR,,0.00,WeatherDisplay:10.37,2013-02-20 23:20:00,
2013-02-20 18:25:00,59.0,17.9,30.00,SSW,195,0.0,0.0,20,0.00,CLR,,0.00,WeatherDisplay:10.37,2013-02-20 23:25:00,
2013-02-20 18:35:00,58.1,17.2,30.00,SSW,195,0.0,0.0,20,0.00,CLR,,0.00,WeatherDisplay:10.37,2013-02-20 23:35:00,
2013-02-20 18:40:00,57.9,17.0,30.00,SSW,195,0.0,0.0,20,0.00,CLR,,0.00,WeatherDisplay:10.37,2013-02-20 23:40:00,
2013-02-20 18:50:00,57.6,16.7,30.00,SSW,195,0.0,0.0,20,0.00,CLR,,0.00,WeatherDisplay:10.37,2013-02-20 23:50:00,
2013-02-20 18:55:00,56.8,16.1,30.03,SSW,195,0.0,0.0,20,0.00,CLR,,0.00,WeatherDisplay:10.37,2013-02-20 23:55:00,
2013-02-20 19:05:00,56.3,15.7,30.03,SSW,195,0.0,0.0,20,0.00,CLR,,0.00,WeatherDisplay:10.37,2013-02-21 00:05:00,
2013-02-20 19:10:00,56.5,15.8,30.03,SSW,195,0.0,0.0,20,0.00,CLR,,0.00,WeatherDisplay:10.37,2013-02-21 00:10:00,
2013-02-20 19:20:00,57.0,16.3,30.03,ENE,60,1.0,6.0,20,0.00,CLR,,0.00,WeatherDisplay:10.37,2013-02-21 00:20:00,
2013-02-20 19:25:00,56.1,15.5,30.03,NE,50,1.0,0.0,20,0.00,CLR,,0.00,WeatherDisplay:10.37,2013-02-21 00:25:00,
2013-02-20 19:30:00,55.9,15.4,30.03,WSW,245,1.0,0.0,20,0.00,CLR,,0.00,WeatherDisplay:10.37,2013-02-21 00:30:00,
2013-02-20 19:40:00,55.0,19.8,30.03,WSW,245,0.0,0.0,25,0.00,CLR,,0.00,WeatherDisplay:10.37,2013-02-21 00:40:00,
2013-02-20 19:50:00,54.1,20.0,30.03,WSW,245,0.0,0.0,26,0.00,CLR,,0.00,WeatherDisplay:10.37,2013-02-21 00:50:00,
2013-02-20 19:55:00,53.8,19.7,30.03,WSW,245,0.0,0.0,26,0.00,CLR,,0.00,WeatherDisplay:10.37,2013-02-21 00:55:00,
2013-02-20 20:05:00,53.4,21.1,30.03,WSW,245,0.0,0.0,28,0.00,CLR,,0.00,WeatherDisplay:10.37,2013-02-21 01:05:00,
2013-02-20 20:10:00,53.2,21.8,30.03,WSW,245,0.0,0.0,29,0.00,CLR,,0.00,WeatherDisplay:10.37,2013-02-21 01:10:00,
2013-02-20 20:20:00,53.2,21.8,30.03,WSW,245,0.0,0.0,29,0.00,CLR,,0.00,WeatherDisplay:10.37,2013-02-21 01:20:00,
2013-02-20 20:25:00,53.2,21.8,30.03,WSW,245,0.0,0.0,29,0.00,CLR,,0.00,WeatherDisplay:10.37,2013-02-21 01:25:00,
2013-02-20 20:35:00,53.2,21.8,30.03,WSW,245,0.0,0.0,29,0.00,CLR,,0.00,WeatherDisplay:10.37,2013-02-21 01:35:00,
2013-02-20 20:40:00,53.2,21.8,30.03,WSW,245,0.0,0.0,29,0.00,CLR,,0.00,WeatherDisplay:10.37,2013-02-21 01:40:00,
2013-02-20 20:50:00,53.2,21.8,30.03,South,182,0.0,0.0,29,0.00,CLR,,0.00,WeatherDisplay:10.37,2013-02-21 01:50:00,
2013-02-20 20:55:00,53.2,21.8,30.03,SSE,160,0.0,0.0,29,0.00,CLR,,0.00,WeatherDisplay:10.37,2013-02-21 01:55:00,
2013-02-20 21:05:00,53.2,21.8,30.03,SSE,160,0.0,0.0,29,0.00,CLR,,0.00,WeatherDisplay:10.37,2013-02-21 02:05:00,
2013-02-20 21:10:00,53.2,21.8,30.03,SSE,160,0.0,0.0,29,0.00,CLR,,0.00,WeatherDisplay:10.37,2013-02-21 02:10:00,
2013-02-20 21:20:00,53.2,21.8,30.03,SSE,160,0.0,0.0,29,0.00,CLR,,0.00,WeatherDisplay:10.37,2013-02-21 02:20:00,
2013-02-20 21:25:00,53.2,21.8,30.03,SSE,160,0.0,0.0,29,0.00,CLR,,0.00,WeatherDisplay:10.37,2013-02-21 02:25:00,
2013-02-20 21:35:00,53.2,21.8,30.03,SSE,160,0.0,0.0,29,0.00,CLR,,0.00,WeatherDisplay:10.37,2013-02-21 02:35:00,
2013-02-20 21:40:00,53.2,21.8,30.03,SSE,160,0.0,0.0,29,0.00,CLR,,0.00,WeatherDisplay:10.37,2013-02-21 02:40:00,
2013-02-20 21:50:00,53.2,21.8,30.03,SSE,160,0.0,0.0,29,0.00,CLR,,0.00,WeatherDisplay:10.37,2013-02-21 02:50:00,
2013-02-20 21:55:00,51.4,26.0,30.03,SSE,160,0.0,0.0,37,0.00,CLR,,0.00,WeatherDisplay:10.37,2013-02-21 02:55:00,
2013-02-20 22:05:00,51.3,26.5,30.03,SSE,160,0.0,0.0,38,0.00,CLR,,0.00,WeatherDisplay:10.37,2013-02-21 03:05:00,
2013-02-20 22:10:00,50.9,26.2,30.03,SSE,160,0.0,0.0,38,0.00,CLR,,0.00,WeatherDisplay:10.37,2013-02-21 03:10:00,
2013-02-20 22:20:00,50.4,25.7,30.03,SSE,158,0.0,0.0,38,0.00,CLR,,0.00,WeatherDisplay:10.37,2013-02-21 03:20:00,
2013-02-20 22:25:00,49.8,26.4,30.03,SSE,156,0.0,0.0,40,0.00,CLR,,0.00,WeatherDisplay:10.37,2013-02-21 03:25:00,
2013-02-20 22:35:00,49.5,27.3,30.03,SSE,155,0.0,0.0,42,0.00,CLR,,0.00,WeatherDisplay:10.37,2013-02-21 03:35:00,
2013-02-20 22:40:00,49.5,27.9,30.03,SSE,155,0.0,0.0,43,0.00,CLR,,0.00,WeatherDisplay:10.37,2013-02-21 03:40:00,
2013-02-20 22:50:00,49.3,28.8,30.03,SSE,155,0.0,0.0,45,0.00,CLR,,0.00,WeatherDisplay:10.37,2013-02-21 03:50:00,
2013-02-20 22:55:00,48.7,28.3,30.03,SSE,155,0.0,0.0,45,0.00,CLR,,0.00,WeatherDisplay:10.37,2013-02-21 03:55:00,
2013-02-20 23:05:00,48.6,28.7,30.03,SSE,155,0.0,0.0,46,0.00,CLR,,0.00,WeatherDisplay:10.37,2013-02-21 04:05:00,
2013-02-20 23:10:00,48.6,28.7,30.03,SSE,155,0.0,0.0,46,0.00,CLR,,0.00,WeatherDisplay:10.37,2013-02-21 04:10:00,
2013-02-20 23:20:00,48.6,28.7,30.03,SSE,155,0.0,0.0,46,0.00,CLR,,0.00,WeatherDisplay:10.37,2013-02-21 04:20:00,
2013-02-20 23:25:00,47.8,28.6,30.03,SSE,155,0.0,0.0,47,0.00,CLR,,0.00,WeatherDisplay:10.37,2013-02-21 04:25:00,
2013-02-20 23:30:00,48.0,29.2,30.03,SSE,155,0.0,0.0,48,0.00,CLR,,0.00,WeatherDisplay:10.37,2013-02-21 04:30:00,
2013-02-20 23:40:00,47.5,28.7,30.03,SSE,155,0.0,0.0,48,0.00,CLR,,0.00,WeatherDisplay:10.37,2013-02-21 04:40:00,
2013-02-20 23:50:00,47.3,28.6,30.03,SSE,155,0.0,0.0,48,0.00,CLR,,0.00,WeatherDisplay:10.37,2013-02-21 04:50:00,
2013-02-20 23:55:00,46.9,29.2,30.03,SSE,155,0.0,0.0,50,0.00,CLR,,0.00,WeatherDisplay:10.37,2013-02-21 04:55:00,